EST,Max TemperatureF,Mean TemperatureF,Min TemperatureF,Max Dew PointF,MeanDew PointF,Min DewpointF,Max Humidity, Mean Humidity, Min Humidity, Max Sea Level PressureIn, Mean Sea Level PressureIn, Min Sea Level PressureIn, Max VisibilityMiles, Mean VisibilityMiles, Min VisibilityMiles, Max Wind SpeedMPH, Mean Wind SpeedMPH, Max Gust SpeedMPH,PrecipitationIn, CloudCover, Events, WindDirDegrees
2013-1-1,42,38,33,43,37,28,100,93,75,30.10,30.02,29.96,10,7,3,12,2,,0.00,7,Rain,170
2013-1-2,41,37,33,41,32,28,100,85,70,30.14,30.08,29.95,10,9,2,9,4,,0.00,8,Rain,243
2013-1-3,37,29,21,30,27,21,100,84,60,30.29,30.20,30.12,10,9,4,8,3,,0.00,5,,256
2013-1-4,37,27,17,25,20,16,100,78,52,30.38,30.34,30.29,10,9,1,12,2,,0.00,1,,277
2013-1-5,44,30,17,34,23,18,100,75,39,30.41,30.31,30.22,10,10,10,7,1,,0.00,2,Rain,241
2013-1-6,37,34,32,34,32,28,100,87,75,30.25,30.17,30.11,10,8,2,9,2,,0.00,8,Rain,254
2013-1-7,48,36,23,30,26,21,93,74,46,30.41,30.32,30.25,10,10,10,7,3,,0.00,1,,268
2013-1-8,55,39,23,30,24,14,86,66,21,30.41,30.33,30.29,10,10,10,7,2,,0.00,0,Rain,69
2013-1-9,48,40,32,45,39,30,100,88,71,30.48,30.41,30.33,10,10,3,7,3,,0.00,4,,68
2013-1-10,64,52,39,52,47,39,100,78,54,30.49,30.40,30.28,10,9,2,16,3,24,0.00,2,,89
2013-1-11,66,58,51,54,50,41,100,77,60,30.27,30.15,30.07,10,10,6,21,9,28,0.00,6,Rain,63
2013-1-12,71,60,48,59,54,48,100,87,64,30.18,30.10,30.04,10,10,10,12,1,,0.00,4,,5
2013-1-13,71,58,44,55,50,45,100,74,46,30.10,30.03,29.98,10,10,5,10,4,,0.00,4,Rain,124
2013-1-14,57,48,39,55,47,37,100,99,93,30.26,30.14,30.06,10,6,2,12,3,,0.00,8,Rain,238
2013-1-15,51,45,39,52,44,39,100,99,93,30.16,30.06,29.95,10,7,1,9,2,,0.00,8,Rain,92
2013-1-16,59,52,44,54,48,45,100,97,82,30.04,29.98,29.89,10,8,2,15,5,,0.00,8,Rain,290
2013-1-17,44,37,30,45,37,28,100,97,87,30.24,30.02,29.92,10,7,1,10,4,,0.00,8,Rain-Snow,238
2013-1-18,39,32,24,28,26,23,100,86,56,30.51,30.43,30.29,10,10,6,9,4,,0.00,2,,286
2013-1-19,46,35,24,30,27,25,100,81,46,30.40,30.29,30.17,10,10,10,9,4,,0.00,0,,31
2013-1-20,48,36,23,32,28,23,100,79,46,30.16,30.13,30.09,10,10,5,14,2,23,0.00,0,Rain,272
2013-1-21,42,33,24,28,18,7,100,62,31,30.12,30.06,30.01,10,10,0,23,4,32,0.00,2,Fog,257
2013-1-22,26,22,17,7,-2,-6,49,34,24,30.25,30.19,30.10,10,10,10,15,10,22,0.00,2,Snow,272
2013-1-23,37,29,21,21,9,-2,86,48,33,30.31,30.20,30.06,10,10,10,13,7,,0.00,4,,266
2013-1-24,39,29,19,28,9,-6,86,48,24,30.41,30.26,30.03,10,10,10,17,7,,0.00,2,,315
2013-1-25,30,24,19,30,19,3,100,78,40,30.34,30.16,30.06,10,7,2,13,7,,0.00,7,Rain,103
2013-1-26,37,32,26,30,28,25,100,87,70,30.35,30.23,30.12,10,9,2,9,5,,0.00,6,,270
2013-1-27,46,35,24,34,28,23,100,73,49,30.41,30.36,30.32,10,10,5,9,4,,0.00,2,Rain,86
2013-1-28,62,48,35,45,40,34,100,76,48,30.36,30.28,30.20,10,10,4,12,4,,0.00,6,Rain,39
2013-1-29,69,55,41,48,46,39,100,79,43,30.24,30.12,29.96,10,8,2,10,1,,0.00,2,,97
2013-1-30,71,58,44,55,51,37,100,81,57,29.91,29.67,29.48,10,8,1,22,5,36,0.00,7,Rain,234
2013-1-31,39,34,28,36,22,18,93,66,48,29.98,29.88,29.60,10,10,3,21,13,37,0.00,7,Rain-Snow,266